EGYMEGSH

Guest
Details From EGYM - Marham
To EGSH - Norwich
Flight Number -
Tags Generated
Created
Modified
Stats Distance 27 nm / 49 km
Max Altitude 0 ft / 0 m
Waypoints 2
Social Downloads 1
Likes 0
Share VATSIM

Download

Looking for another format? Having issues loading an existing format? Contact us
Advertisement - Login to hide

Notes

Generated

Route

EGYM EGSH

ID Type Via Altitude Latitude Longitude Leg Dist Tot Dist Heading (true) Name
O EGYM APT - 0 ft / 0 m 52.63902˚ 0.55567˚ - 0 nm - -
O EGSH APT - 0 ft / 0 m 52.67429˚ 1.28208˚ 26 nm 26 nm 85° / 86° -

Altitude Profile

Advertisement - Login to hide

EGYM

Details ICAO EGYM (KNF)
Name RAF Marham
Region United Kingdom
Timezone Europe/London (UTC+0.0)
Stats Elevation 75 ft / 23 m (AMSL)
Location 52.647657° 0.554049°
Runways 2
Magnetic Variation 0.333° W

METAR

EGYM 120650Z 00000KT 7000 HZ FEW035 M02/M03 Q1004 WHT TEMPO 4000 BR SCT010 GRN

Decode

TAF

Not found

Departure Runways

ID Width Length Bearing (true) Bearing (mag) Surface Threshold Offset Overrun Length
01 299 ft / 91 m 5,896 ft / 1,797 m 8.58° 8.91° Concrete 0 ft / 0 m 0 ft / 0 m
06 200 ft / 61 m 9,111 ft / 2,777 m 55.35° 55.68° Asphalt 0 ft / 0 m 75 ft / 23 m
19 299 ft / 91 m 5,896 ft / 1,797 m 188.58° 188.91° Concrete 0 ft / 0 m 0 ft / 0 m
24 200 ft / 61 m 9,111 ft / 2,777 m 235.37° 235.70° Asphalt 0 ft / 0 m 59 ft / 18 m

EGSH

Details ICAO EGSH (NWI)
Name Norwich
Region United Kingdom
Timezone Europe/London (UTC+0.0)
Stats Elevation 117 ft / 36 m (AMSL)
Location 52.676860° 1.284493°
Runways 2
Magnetic Variation 0.078° W

METAR

EGSH 120650Z 27005KT 7000 FEW006 00/M00 Q1004

Decode

TAF

Not found

Destination Runways

ID Width Length Bearing (true) Bearing (mag) Surface Threshold Offset Overrun Length
09 148 ft / 45 m 6,023 ft / 1,836 m 89.29° 89.37° Asphalt 0 ft / 0 m 0 ft / 0 m
21 141 ft / 43 m 5,148 ft / 1,569 m 216.41° 216.49° Asphalt 0 ft / 0 m 0 ft / 0 m
27 148 ft / 45 m 6,023 ft / 1,836 m 269.31° 269.39° Asphalt 0 ft / 0 m 0 ft / 0 m
3 141 ft / 43 m 5,148 ft / 1,569 m 36.39° 36.47° Asphalt 991 ft / 302 m 0 ft / 0 m

Approach Navaids

Runway Type Ident Frequency Range Bearing (true) Bearing (mag) Slope Elevation
27 Localiser INH 110.90 MHz 18 nm / 33 km 269.24° 269.31° - 117 ft / 36 m (AMSL)
27 Glidescope INH 110.90 MHz 10 nm / 19 km 269.30° 269.38° 3.00° 117 ft / 36 m (AMSL)
27 DME INH 110.90 MHz 18 nm / 33 km - - - 137 ft / 42 m (AMSL)